Pacific Pathfinder — PATH — position and weather

sailwx.info

Track history (hours):
 
Tides and Currents Weather Stations Pressure Air Temp Water Temp Dewpoint Dewpoint Depression Visibility Wind Speed Wind Dir Waves Ship Positions

Pacific Pathfinder

Last reported at 2017-Nov-19 23:04 UTC. Time now 2017-Nov-21 13:47 UTC.
Position N 54°19' W 130°20'.

Length 22 m; draft 1.3 m.

Type: Pilot. MMSI: 316003484.

Date/timePositionNaut miles runAvg speedWind from/ knotsBaromVisibWave heightAir tempDewpointWater temp
2017-Nov-19 23:04N 54°19' W 130°20'0 7.7
2017-Nov-19 23:00N 54°19' W 130°19'0 0.2
2017-Nov-19 22:30N 54°19' W 130°19'612.3
2017-Nov-19 22:01N 54°19' W 130°30'1422.7
2017-Nov-19 21:24N 54°19' W 130°54'4 9.2
2017-Nov-19 21:00N 54°17' W 130°48'612.9
2017-Nov-19 20:30N 54°14' W 130°38'1019.5
2017-Nov-19 20:00N 54°16' W 130°22'2 1.9
2017-Nov-19 19:04N 54°17' W 130°22'112.1
2017-Nov-19 19:01N 54°17' W 130°22'816.3
2017-Nov-19 18:31N 54°15' W 130°36'1119.9
2017-Nov-19 17:56N 54°19' W 130°54'818.8
2017-Nov-19 17:30N 54°16' W 130°41'1121.9
2017-Nov-19 17:00N 54°14' W 130°23'4 0.4
2017-Nov-19 06:13N 54°18' W 130°21'315.2
2017-Nov-19 06:00N 54°14' W 130°21'1020.9
2017-Nov-19 05:31N 54°15' W 130°39'916.8
2017-Nov-19 05:00N 54°19' W 130°52'714.4
2017-Nov-19 04:30N 54°15' W 130°41'612.6
2017-Nov-19 04:00N 54°14' W 130°31'611.5
2017-Nov-19 03:31N 54°14' W 130°21'4 0.6
2017-Nov-18 20:23N 54°19' W 130°21'1 3.1
2017-Nov-18 20:00N 54°19' W 130°19'2 3.4
2017-Nov-18 19:23N 54°18' W 130°22'512.8
2017-Nov-18 19:00N 54°19' W 130°30'1120.8
2017-Nov-18 18:28N 54°17' W 130°49'612.1
2017-Nov-18 18:00N 54°16' W 130°39'815.1
2017-Nov-18 17:30N 54°14' W 130°27'5 2.0
2017-Nov-18 15:06N 54°18' W 130°21'1 8.1
2017-Nov-18 15:01N 54°17' W 130°22'714.6
2017-Nov-18 14:31N 54°15' W 130°34'1018.8
2017-Nov-18 14:00N 54°17' W 130°50'7 9.5
2017-Nov-18 13:18N 54°19' W 130°39'510.9
2017-Nov-18 12:51N 54°19' W 130°30'1217.6
2017-Nov-18 12:10N 54°18' W 130°50'1 5.2
2017-Nov-18 12:01N 54°18' W 130°49'4 8.9
2017-Nov-18 11:31N 54°17' W 130°42'1122.0
2017-Nov-18 11:01N 54°13' W 130°24'6 0.1
2017-Nov-16 17:37N 54°19' W 130°21'1 7.6
2017-Nov-16 17:30N 54°19' W 130°19'0 0.2
2017-Nov-16 16:46N 54°19' W 130°19'0 0.0
2017-Nov-16 16:30N 54°19' W 130°19'2 1.0
2017-Nov-16 14:09N 54°17' W 130°22'320.2
2017-Nov-16 14:01N 54°14' W 130°21'1020.7
2017-Nov-16 13:31N 54°16' W 130°39'916.8
2017-Nov-16 12:58N 54°19' W 130°53'612.7
2017-Nov-16 12:30N 54°16' W 130°44'613.0
2017-Nov-16 12:00N 54°14' W 130°34'714.6
2017-Nov-16 11:30N 54°14' W 130°22'4 0.4
2017-Nov-16 03:06N 54°18' W 130°22'115.3
2017-Nov-16 03:00N 54°16' W 130°22'816.6
2017-Nov-16 02:31N 54°15' W 130°36'712.4
2017-Nov-16 01:55N 54°18' W 130°48'513.3
2017-Nov-16 01:30N 54°15' W 130°40'7 8.8
2017-Nov-16 00:45N 54°19' W 130°30'0 1.1
2017-Nov-16 00:20N 54°19' W 130°30'818.8
2017-Nov-15 23:55N 54°18' W 130°43'2 4.7
2017-Nov-15 23:30N 54°16' W 130°44'4 7.6
2017-Nov-15 23:00N 54°12' W 130°46'0 0.0
2017-Nov-15 22:30N 54°12' W 130°46'3 5.1
2017-Nov-15 22:01N 54°15' W 130°47'3 6.8
2017-Nov-15 21:30N 54°18' W 130°50'1121.3
2017-Nov-15 21:00N 54°15' W 130°33'7 1.7
2017-Nov-15 16:45N 54°18' W 130°21'2 6.8
2017-Nov-15 16:29N 54°19' W 130°19'0 0.5
2017-Nov-15 16:00N 54°19' W 130°20'2 0.4
2017-Nov-15 11:46N 54°18' W 130°22'413.4
2017-Nov-15 11:30N 54°20' W 130°26'1119.5
2017-Nov-15 10:57N 54°18' W 130°44'2 4.5
2017-Nov-15 10:30N 54°18' W 130°48'1121.1
2017-Nov-15 09:58N 54°20' W 130°29'5 1.2
2017-Nov-15 06:02N 54°18' W 130°21'0 5.7
2017-Nov-15 06:00N 54°18' W 130°22'713.6
2017-Nov-15 05:31N 54°18' W 130°33'1221.3
2017-Nov-15 04:57N 54°19' W 130°53'816.7
2017-Nov-15 04:29N 54°19' W 130°40'918.6
2017-Nov-15 04:00N 54°19' W 130°24'2 2.8
2017-Nov-15 03:21N 54°18' W 130°22'411.9
2017-Nov-15 03:00N 54°20' W 130°28'1221.5
2017-Nov-15 02:26N 54°18' W 130°49'3 6.8
2017-Nov-15 02:00N 54°17' W 130°44'611.2
2017-Nov-15 01:30N 54°15' W 130°35'815.7
2017-Nov-15 01:01N 54°15' W 130°21'3 0.6
2017-Nov-14 20:47N 54°18' W 130°21'2 6.4
2017-Nov-14 20:30N 54°19' W 130°19'2 0.2
2017-Nov-14 07:35N 54°17' W 130°22'118.6
2017-Nov-14 07:30N 54°16' W 130°22'917.4
2017-Nov-14 07:00N 54°15' W 130°36'714.4
2017-Nov-14 06:30N 54°18' W 130°48'510.0
2017-Nov-14 06:00N 54°13' W 130°46'1 1.1
2017-Nov-14 05:30N 54°12' W 130°46'0 0.0
2017-Nov-14 05:00N 54°12' W 130°46'0 0.0
2017-Nov-14 04:30N 54°12' W 130°46'815.1
2017-Nov-14 04:00N 54°19' W 130°53'815.5
2017-Nov-14 03:30N 54°16' W 130°41'1121.7
2017-Nov-14 03:01N 54°14' W 130°23'4 7.8
2017-Nov-14 02:30N 54°17' W 130°22'613.0
2017-Nov-14 02:01N 54°15' W 130°32'1122.1
2017-Nov-14 01:30N 54°18' W 130°50'4 8.0
2017-Nov-14 01:00N 54°17' W 130°44'1121.9
2017-Nov-14 00:31N 54°14' W 130°26'12 0.5
2017-Nov-13 02:00N 54°12' W 130°46'612.1
2017-Nov-13 01:30N 54°18' W 130°51'1 1.4
2017-Nov-13 00:59N 54°18' W 130°52'1 2.4
2017-Nov-13 00:29N 54°18' W 130°50'3 7.0
2017-Nov-13 00:00N 54°17' W 130°45'1122.2
2017-Nov-12 23:30N 54°14' W 130°26'5 0.4
2017-Nov-12 10:04N 54°18' W 130°22'0 7.4
2017-Nov-12 10:00N 54°17' W 130°22'714.5
2017-Nov-12 09:30N 54°15' W 130°34'1218.6
2017-Nov-12 08:51N 54°19' W 130°53'719.6
2017-Nov-12 08:30N 54°17' W 130°42'1223.4
2017-Nov-12 08:00N 54°14' W 130°23'4 0.4
2017-Nov-11 21:43N 54°18' W 130°21'316.3
2017-Nov-11 21:31N 54°14' W 130°21'1020.4
2017-Nov-11 21:00N 54°15' W 130°38'714.0
2017-Nov-11 20:29N 54°18' W 130°50'1 1.8
2017-Nov-11 19:59N 54°19' W 130°50'1222.0
2017-Nov-11 19:27N 54°19' W 130°30'6 4.6
2017-Nov-11 18:08N 54°19' W 130°20'0 0.7
2017-Nov-11 17:42N 54°19' W 130°19'2 0.8
2017-Nov-11 15:04N 54°18' W 130°21'0 6.6
2017-Nov-11 14:59N 54°18' W 130°22'714.7
2017-Nov-11 14:31N 54°18' W 130°34'1120.8
2017-Nov-11 14:00N 54°19' W 130°52'611.6
2017-Nov-11 13:31N 54°16' W 130°44'1122.1
2017-Nov-11 13:00N 54°13' W 130°25'5 0.8
2017-Nov-11 06:42N 54°18' W 130°21'210.0
2017-Nov-11 06:30N 54°19' W 130°24'816.4
2017-Nov-11 06:00N 54°19' W 130°38'611.4
2017-Nov-11 05:30N 54°18' W 130°48'613.0
2017-Nov-11 05:00N 54°14' W 130°38'713.2
2017-Nov-11 04:30N 54°14' W 130°27'4 7.5
2017-Nov-11 04:00N 54°16' W 130°22'4 7.1
2017-Nov-11 03:30N 54°19' W 130°25'1218.6
2017-Nov-11 02:52N 54°18' W 130°45'1 2.6
2017-Nov-11 02:30N 54°17' W 130°46'5 9.3
2017-Nov-11 02:00N 54°12' W 130°46'0 0.0
2017-Nov-11 01:30N 54°12' W 130°46'0 0.0
2017-Nov-11 01:00N 54°12' W 130°46'0 0.0
2017-Nov-11 00:30N 54°12' W 130°46'0 0.0
2017-Nov-11 00:00N 54°12' W 130°46'0 0.0
2017-Nov-10 23:30N 54°12' W 130°46'0 0.0
2017-Nov-10 23:00N 54°12' W 130°46'0 0.0
2017-Nov-10 22:30N 54°12' W 130°46'4 7.9
2017-Nov-10 22:00N 54°16' W 130°48'5 9.8
2017-Nov-10 21:29N 54°18' W 130°40'917.2
2017-Nov-10 20:57N 54°19' W 130°25'2 0.7
2017-Nov-10 17:42N 54°18' W 130°21'2 8.9
2017-Nov-10 17:30N 54°19' W 130°19'0 0.6
2017-Nov-10 17:00N 54°19' W 130°20'712.7
2017-Nov-10 16:29N 54°19' W 130°31'1321.3
2017-Nov-10 15:54N 54°19' W 130°52'511.4
2017-Nov-10 15:27N 54°19' W 130°44'1021.1
2017-Nov-10 14:58N 54°20' W 130°27'4 0.3
2017-Nov-10 03:26N 54°18' W 130°21'613.1
2017-Nov-10 03:00N 54°14' W 130°28'1121.3
2017-Nov-10 02:30N 54°17' W 130°46'1 1.3
2017-Nov-10 02:00N 54°17' W 130°47'612.9
2017-Nov-10 01:30N 54°14' W 130°37'713.0
2017-Nov-10 01:00N 54°13' W 130°26'6 4.7
2017-Nov-09 23:41N 54°19' W 130°20'  
Track history (hours):
 
Tides and Currents Weather Stations Pressure Air Temp Water Temp Dewpoint Dewpoint Depression Visibility Wind Speed Wind Dir Waves Ship Positions

Pacific Pathfinder

Last reported at 2017-Nov-19 23:04 UTC. Time now 2017-Nov-21 13:47 UTC.
Position N 54°19' W 130°20'.

Length 22 m; draft 1.3 m.

Type: Pilot. MMSI: 316003484.

Date/timePositionNaut miles runAvg speedWind from/ knotsBaromVisibWave heightAir tempDewpointWater temp
2017-Nov-19 23:04N 54°19' W 130°20'0 7.7
2017-Nov-19 23:00N 54°19' W 130°19'0 0.2
2017-Nov-19 22:30N 54°19' W 130°19'612.3
2017-Nov-19 22:01N 54°19' W 130°30'1422.7
2017-Nov-19 21:24N 54°19' W 130°54'4 9.2
2017-Nov-19 21:00N 54°17' W 130°48'612.9
2017-Nov-19 20:30N 54°14' W 130°38'1019.5
2017-Nov-19 20:00N 54°16' W 130°22'2 1.9
2017-Nov-19 19:04N 54°17' W 130°22'112.1
2017-Nov-19 19:01N 54°17' W 130°22'816.3
2017-Nov-19 18:31N 54°15' W 130°36'1119.9
2017-Nov-19 17:56N 54°19' W 130°54'818.8
2017-Nov-19 17:30N 54°16' W 130°41'1121.9
2017-Nov-19 17:00N 54°14' W 130°23'4 0.4
2017-Nov-19 06:13N 54°18' W 130°21'315.2
2017-Nov-19 06:00N 54°14' W 130°21'1020.9
2017-Nov-19 05:31N 54°15' W 130°39'916.8
2017-Nov-19 05:00N 54°19' W 130°52'714.4
2017-Nov-19 04:30N 54°15' W 130°41'612.6
2017-Nov-19 04:00N 54°14' W 130°31'611.5
2017-Nov-19 03:31N 54°14' W 130°21'4 0.6
2017-Nov-18 20:23N 54°19' W 130°21'1 3.1
2017-Nov-18 20:00N 54°19' W 130°19'2 3.4
2017-Nov-18 19:23N 54°18' W 130°22'512.8
2017-Nov-18 19:00N 54°19' W 130°30'1120.8
2017-Nov-18 18:28N 54°17' W 130°49'612.1
2017-Nov-18 18:00N 54°16' W 130°39'815.1
2017-Nov-18 17:30N 54°14' W 130°27'5 2.0
2017-Nov-18 15:06N 54°18' W 130°21'1 8.1
2017-Nov-18 15:01N 54°17' W 130°22'714.6
2017-Nov-18 14:31N 54°15' W 130°34'1018.8
2017-Nov-18 14:00N 54°17' W 130°50'7 9.5
2017-Nov-18 13:18N 54°19' W 130°39'510.9
2017-Nov-18 12:51N 54°19' W 130°30'1217.6
2017-Nov-18 12:10N 54°18' W 130°50'1 5.2
2017-Nov-18 12:01N 54°18' W 130°49'4 8.9
2017-Nov-18 11:31N 54°17' W 130°42'1122.0
2017-Nov-18 11:01N 54°13' W 130°24'6 0.1
2017-Nov-16 17:37N 54°19' W 130°21'1 7.6
2017-Nov-16 17:30N 54°19' W 130°19'0 0.2
2017-Nov-16 16:46N 54°19' W 130°19'0 0.0
2017-Nov-16 16:30N 54°19' W 130°19'2 1.0
2017-Nov-16 14:09N 54°17' W 130°22'320.2
2017-Nov-16 14:01N 54°14' W 130°21'1020.7
2017-Nov-16 13:31N 54°16' W 130°39'916.8
2017-Nov-16 12:58N 54°19' W 130°53'612.7
2017-Nov-16 12:30N 54°16' W 130°44'613.0
2017-Nov-16 12:00N 54°14' W 130°34'714.6
2017-Nov-16 11:30N 54°14' W 130°22'4 0.4
2017-Nov-16 03:06N 54°18' W 130°22'115.3
2017-Nov-16 03:00N 54°16' W 130°22'816.6
2017-Nov-16 02:31N 54°15' W 130°36'712.4
2017-Nov-16 01:55N 54°18' W 130°48'513.3
2017-Nov-16 01:30N 54°15' W 130°40'7 8.8
2017-Nov-16 00:45N 54°19' W 130°30'0 1.1
2017-Nov-16 00:20N 54°19' W 130°30'818.8
2017-Nov-15 23:55N 54°18' W 130°43'2 4.7
2017-Nov-15 23:30N 54°16' W 130°44'4 7.6
2017-Nov-15 23:00N 54°12' W 130°46'0 0.0
2017-Nov-15 22:30N 54°12' W 130°46'3 5.1
2017-Nov-15 22:01N 54°15' W 130°47'3 6.8
2017-Nov-15 21:30N 54°18' W 130°50'1121.3
2017-Nov-15 21:00N 54°15' W 130°33'7 1.7
2017-Nov-15 16:45N 54°18' W 130°21'2 6.8
2017-Nov-15 16:29N 54°19' W 130°19'0 0.5
2017-Nov-15 16:00N 54°19' W 130°20'2 0.4
2017-Nov-15 11:46N 54°18' W 130°22'413.4
2017-Nov-15 11:30N 54°20' W 130°26'1119.5
2017-Nov-15 10:57N 54°18' W 130°44'2 4.5
2017-Nov-15 10:30N 54°18' W 130°48'1121.1
2017-Nov-15 09:58N 54°20' W 130°29'5 1.2
2017-Nov-15 06:02N 54°18' W 130°21'0 5.7
2017-Nov-15 06:00N 54°18' W 130°22'713.6
2017-Nov-15 05:31N 54°18' W 130°33'1221.3
2017-Nov-15 04:57N 54°19' W 130°53'816.7
2017-Nov-15 04:29N 54°19' W 130°40'918.6
2017-Nov-15 04:00N 54°19' W 130°24'2 2.8
2017-Nov-15 03:21N 54°18' W 130°22'411.9
2017-Nov-15 03:00N 54°20' W 130°28'1221.5
2017-Nov-15 02:26N 54°18' W 130°49'3 6.8
2017-Nov-15 02:00N 54°17' W 130°44'611.2
2017-Nov-15 01:30N 54°15' W 130°35'815.7
2017-Nov-15 01:01N 54°15' W 130°21'3 0.6
2017-Nov-14 20:47N 54°18' W 130°21'2 6.4
2017-Nov-14 20:30N 54°19' W 130°19'2 0.2
2017-Nov-14 07:35N 54°17' W 130°22'118.6
2017-Nov-14 07:30N 54°16' W 130°22'917.4
2017-Nov-14 07:00N 54°15' W 130°36'714.4
2017-Nov-14 06:30N 54°18' W 130°48'510.0
2017-Nov-14 06:00N 54°13' W 130°46'1 1.1
2017-Nov-14 05:30N 54°12' W 130°46'0 0.0
2017-Nov-14 05:00N 54°12' W 130°46'0 0.0
2017-Nov-14 04:30N 54°12' W 130°46'815.1
2017-Nov-14 04:00N 54°19' W 130°53'815.5
2017-Nov-14 03:30N 54°16' W 130°41'1121.7
2017-Nov-14 03:01N 54°14' W 130°23'4 7.8
2017-Nov-14 02:30N 54°17' W 130°22'613.0
2017-Nov-14 02:01N 54°15' W 130°32'1122.1
2017-Nov-14 01:30N 54°18' W 130°50'4 8.0
2017-Nov-14 01:00N 54°17' W 130°44'1121.9
2017-Nov-14 00:31N 54°14' W 130°26'12 0.5
2017-Nov-13 02:00N 54°12' W 130°46'612.1
2017-Nov-13 01:30N 54°18' W 130°51'1 1.4
2017-Nov-13 00:59N 54°18' W 130°52'1 2.4
2017-Nov-13 00:29N 54°18' W 130°50'3 7.0
2017-Nov-13 00:00N 54°17' W 130°45'1122.2
2017-Nov-12 23:30N 54°14' W 130°26'5 0.4
2017-Nov-12 10:04N 54°18' W 130°22'0 7.4
2017-Nov-12 10:00N 54°17' W 130°22'714.5
2017-Nov-12 09:30N 54°15' W 130°34'1218.6
2017-Nov-12 08:51N 54°19' W 130°53'719.6
2017-Nov-12 08:30N 54°17' W 130°42'1223.4
2017-Nov-12 08:00N 54°14' W 130°23'4 0.4
2017-Nov-11 21:43N 54°18' W 130°21'316.3
2017-Nov-11 21:31N 54°14' W 130°21'1020.4
2017-Nov-11 21:00N 54°15' W 130°38'714.0
2017-Nov-11 20:29N 54°18' W 130°50'1 1.8
2017-Nov-11 19:59N 54°19' W 130°50'1222.0
2017-Nov-11 19:27N 54°19' W 130°30'6 4.6
2017-Nov-11 18:08N 54°19' W 130°20'0 0.7
2017-Nov-11 17:42N 54°19' W 130°19'2 0.8
2017-Nov-11 15:04N 54°18' W 130°21'0 6.6
2017-Nov-11 14:59N 54°18' W 130°22'714.7
2017-Nov-11 14:31N 54°18' W 130°34'1120.8
2017-Nov-11 14:00N 54°19' W 130°52'611.6
2017-Nov-11 13:31N 54°16' W 130°44'1122.1
2017-Nov-11 13:00N 54°13' W 130°25'5 0.8
2017-Nov-11 06:42N 54°18' W 130°21'210.0
2017-Nov-11 06:30N 54°19' W 130°24'816.4
2017-Nov-11 06:00N 54°19' W 130°38'611.4
2017-Nov-11 05:30N 54°18' W 130°48'613.0
2017-Nov-11 05:00N 54°14' W 130°38'713.2
2017-Nov-11 04:30N 54°14' W 130°27'4 7.5
2017-Nov-11 04:00N 54°16' W 130°22'4 7.1
2017-Nov-11 03:30N 54°19' W 130°25'1218.6
2017-Nov-11 02:52N 54°18' W 130°45'1 2.6
2017-Nov-11 02:30N 54°17' W 130°46'5 9.3
2017-Nov-11 02:00N 54°12' W 130°46'0 0.0
2017-Nov-11 01:30N 54°12' W 130°46'0 0.0
2017-Nov-11 01:00N 54°12' W 130°46'0 0.0
2017-Nov-11 00:30N 54°12' W 130°46'0 0.0
2017-Nov-11 00:00N 54°12' W 130°46'0 0.0
2017-Nov-10 23:30N 54°12' W 130°46'0 0.0
2017-Nov-10 23:00N 54°12' W 130°46'0 0.0
2017-Nov-10 22:30N 54°12' W 130°46'4 7.9
2017-Nov-10 22:00N 54°16' W 130°48'5 9.8
2017-Nov-10 21:29N 54°18' W 130°40'917.2
2017-Nov-10 20:57N 54°19' W 130°25'2 0.7
2017-Nov-10 17:42N 54°18' W 130°21'2 8.9
2017-Nov-10 17:30N 54°19' W 130°19'0 0.6
2017-Nov-10 17:00N 54°19' W 130°20'712.7
2017-Nov-10 16:29N 54°19' W 130°31'1321.3
2017-Nov-10 15:54N 54°19' W 130°52'511.4
2017-Nov-10 15:27N 54°19' W 130°44'1021.1
2017-Nov-10 14:58N 54°20' W 130°27'4 0.3
2017-Nov-10 03:26N 54°18' W 130°21'613.1
2017-Nov-10 03:00N 54°14' W 130°28'1121.3
2017-Nov-10 02:30N 54°17' W 130°46'1 1.3
2017-Nov-10 02:00N 54°17' W 130°47'612.9
2017-Nov-10 01:30N 54°14' W 130°37'713.0
2017-Nov-10 01:00N 54°13' W 130°26'6 4.7
2017-Nov-09 23:41N 54°19' W 130°20'  

Dump ship's entire track history